createdAt,value
2023-05-08T00:01:11.662Z,77.50
2023-05-08T00:03:38.805Z,77.30
2023-05-08T00:06:07.968Z,77.30
2023-05-08T00:08:34.950Z,77.20
2023-05-08T00:11:02.208Z,77.30
2023-05-08T00:13:30.414Z,77.70
2023-05-08T00:15:58.734Z,77.40
2023-05-08T00:18:25.718Z,77.30
2023-05-08T00:20:52.686Z,77.50
2023-05-08T00:23:22.120Z,77.40
2023-05-08T00:25:49.019Z,77.50
2023-05-08T00:28:16.014Z,77.40
2023-05-08T00:30:43.940Z,77.40
2023-05-08T00:33:11.950Z,77.40
2023-05-08T00:35:41.119Z,77.60
2023-05-08T00:38:08.100Z,77.50
2023-05-08T00:40:35.258Z,77.80
2023-05-08T00:43:03.575Z,77.70
2023-05-08T00:45:36.561Z,77.70
2023-05-08T00:48:04.194Z,77.90
2023-05-08T00:50:32.263Z,77.60
2023-05-08T00:53:01.210Z,77.60
2023-05-08T00:55:29.283Z,77.70
2023-05-08T00:57:56.525Z,77.70
2023-05-08T01:00:24.982Z,77.60
2023-05-08T01:02:52.513Z,77.50
2023-05-08T01:05:19.489Z,77.60
2023-05-08T01:07:46.806Z,77.70
2023-05-08T01:10:14.444Z,77.70
2023-05-08T01:13:15.155Z,77.70
2023-05-08T01:15:49.446Z,77.90
2023-05-08T01:18:27.868Z,77.80
2023-05-08T01:21:07.022Z,77.70
2023-05-08T01:23:55.095Z,77.80
2023-05-08T01:26:42.758Z,77.80
2023-05-08T01:29:18.180Z,77.80
2023-05-08T01:31:48.132Z,77.80
2023-05-08T01:34:27.092Z,77.70
2023-05-08T01:37:12.800Z,77.80
2023-05-08T01:39:48.293Z,77.80
2023-05-08T01:42:21.283Z,77.80
2023-05-08T01:44:54.946Z,77.80
2023-05-08T01:47:25.950Z,77.90
2023-05-08T01:50:25.728Z,77.80
2023-05-08T01:53:01.279Z,77.60
2023-05-08T01:55:34.903Z,77.80
2023-05-08T01:58:07.382Z,77.70
2023-05-08T02:00:34.305Z,77.70
2023-05-08T02:03:06.054Z,77.70
2023-05-08T02:05:35.128Z,77.70
2023-05-08T02:08:03.038Z,77.70
2023-05-08T02:10:32.023Z,77.70
2023-05-08T02:13:03.795Z,77.60
2023-05-08T02:15:32.111Z,77.60
2023-05-08T02:17:59.845Z,77.60
2023-05-08T02:20:29.077Z,77.50
2023-05-08T02:22:56.972Z,77.50
2023-05-08T02:25:25.674Z,77.40
2023-05-08T02:27:54.419Z,77.30
2023-05-08T02:30:24.960Z,77.20
2023-05-08T02:32:54.209Z,77.20
2023-05-08T02:35:21.703Z,77.10
2023-05-08T02:37:54.076Z,77.00
2023-05-08T02:40:23.557Z,76.80
2023-05-08T02:42:50.928Z,77.00
2023-05-08T02:45:18.022Z,77.00
2023-05-08T02:48:00.251Z,76.90
2023-05-08T02:50:38.470Z,77.00
2023-05-08T02:53:16.177Z,77.00
2023-05-08T02:55:49.776Z,77.00
2023-05-08T02:58:25.017Z,77.00
2023-05-08T03:01:07.420Z,77.30
2023-05-08T03:03:44.874Z,76.80
2023-05-08T03:06:21.934Z,76.80
2023-05-08T03:08:51.134Z,76.70
2023-05-08T03:11:26.380Z,76.50
2023-05-08T03:13:57.199Z,76.80
2023-05-08T03:16:26.054Z,76.80
2023-05-08T03:18:59.613Z,76.80
2023-05-08T03:21:29.516Z,77.10
2023-05-08T03:24:00.972Z,76.50
2023-05-08T03:26:28.879Z,76.60
2023-05-08T03:28:57.666Z,76.90
2023-05-08T03:31:25.877Z,76.70
2023-05-08T03:33:56.677Z,76.90
2023-05-08T03:36:25.670Z,76.40
2023-05-08T03:38:52.792Z,76.40
2023-05-08T03:41:19.863Z,76.60
2023-05-08T03:43:47.528Z,76.40
2023-05-08T03:46:16.323Z,76.60
2023-05-08T03:48:44.868Z,76.50
2023-05-08T03:51:12.835Z,76.70
2023-05-08T03:53:39.757Z,76.80
2023-05-08T03:56:08.835Z,76.80
2023-05-08T03:59:14.962Z,76.60
2023-05-08T04:01:59.604Z,75.90
2023-05-08T04:04:42.010Z,76.30
2023-05-08T04:07:29.283Z,75.90
2023-05-08T04:10:05.958Z,76.40
2023-05-08T04:12:38.916Z,75.80
2023-05-08T04:15:14.934Z,75.80
2023-05-08T04:17:59.392Z,75.90
2023-05-08T04:20:31.018Z,76.20
2023-05-08T04:22:59.065Z,76.40
2023-05-08T04:25:26.940Z,76.50
2023-05-08T04:27:56.141Z,76.50
2023-05-08T04:30:23.418Z,76.50
2023-05-08T04:32:51.383Z,76.60
2023-05-08T04:35:18.409Z,76.80
2023-05-08T04:37:46.372Z,77.00
2023-05-08T04:40:13.470Z,77.00
2023-05-08T04:42:43.287Z,77.00
2023-05-08T04:45:10.896Z,77.20
2023-05-08T04:47:37.993Z,77.30
2023-05-08T04:50:06.481Z,77.30
2023-05-08T04:52:35.683Z,77.40
2023-05-08T04:55:02.646Z,77.40
2023-05-08T04:57:29.588Z,77.50
2023-05-08T04:59:56.591Z,77.60
2023-05-08T05:02:25.588Z,77.80
2023-05-08T05:04:52.462Z,77.90
2023-05-08T05:07:19.313Z,78.10
2023-05-08T05:09:47.329Z,78.20
2023-05-08T05:12:15.528Z,78.30
2023-05-08T05:14:42.396Z,78.30
2023-05-08T05:17:09.239Z,78.30
2023-05-08T05:19:36.142Z,78.20
2023-05-08T05:22:03.058Z,78.20
2023-05-08T05:24:30.129Z,78.10
2023-05-08T05:26:57.003Z,78.00
2023-05-08T05:29:23.882Z,78.00
2023-05-08T05:31:50.753Z,77.90
2023-05-08T05:34:18.877Z,77.90
2023-05-08T05:36:45.725Z,77.90
2023-05-08T05:39:14.434Z,77.90
2023-05-08T05:41:46.570Z,77.90
2023-05-08T05:44:15.066Z,77.80
2023-05-08T05:46:44.394Z,77.90
2023-05-08T05:49:14.559Z,77.80
2023-05-08T05:51:41.911Z,77.80
2023-05-08T05:54:08.796Z,77.70
2023-05-08T05:56:35.663Z,77.70
2023-05-08T05:59:02.728Z,77.70
2023-05-08T06:01:29.680Z,77.60
2023-05-08T06:03:56.672Z,77.50
2023-05-08T06:06:23.709Z,77.40
2023-05-08T06:08:50.636Z,77.40
2023-05-08T06:11:17.535Z,77.30
2023-05-08T06:13:45.787Z,77.30
2023-05-08T06:16:12.656Z,77.20
2023-05-08T06:18:39.534Z,77.20
2023-05-08T06:21:06.580Z,77.10
2023-05-08T06:23:34.291Z,77.10
2023-05-08T06:26:01.317Z,77.10
2023-05-08T06:28:29.537Z,77.10
2023-05-08T06:30:56.475Z,77.10
2023-05-08T06:33:25.457Z,77.70
2023-05-08T06:35:54.793Z,77.10
2023-05-08T06:38:22.268Z,77.30
2023-05-08T06:40:53.656Z,77.30
2023-05-08T06:43:21.122Z,77.30
2023-05-08T06:45:49.171Z,73.60
2023-05-08T06:48:17.485Z,73.90
2023-05-08T06:50:44.402Z,70.40
2023-05-08T06:53:11.439Z,65.60
2023-05-08T06:55:38.304Z,62.80
2023-05-08T06:58:06.841Z,59.70
2023-05-08T07:00:34.885Z,58.10
2023-05-08T07:03:02.162Z,56.50
2023-05-08T07:05:29.455Z,55.90
2023-05-08T07:07:56.408Z,54.40
2023-05-08T07:10:23.557Z,54.00
2023-05-08T07:12:50.746Z,52.90
2023-05-08T07:17:51.491Z,50.80
2023-05-08T07:20:19.079Z,49.70
2023-05-08T07:22:46.562Z,48.30
2023-05-08T07:25:13.718Z,47.40
2023-05-08T07:27:41.423Z,46.50
2023-05-08T07:30:09.097Z,45.90
2023-05-08T07:32:36.237Z,45.10
2023-05-08T07:35:03.918Z,44.70
2023-05-08T07:37:30.845Z,44.30
2023-05-08T07:39:58.226Z,44.10
2023-05-08T07:42:25.218Z,45.10
2023-05-08T07:44:55.276Z,45.80
2023-05-08T07:47:22.857Z,46.40
2023-05-08T07:49:49.821Z,47.00
2023-05-08T07:52:16.858Z,47.70
2023-05-08T07:54:44.125Z,48.10
2023-05-08T07:57:11.783Z,48.60
2023-05-08T07:59:38.843Z,48.80
2023-05-08T08:02:07.564Z,49.10
2023-05-08T08:04:34.563Z,49.50
2023-05-08T08:07:04.310Z,49.70
2023-05-08T08:09:31.349Z,50.00
2023-05-08T08:11:58.647Z,50.20
2023-05-08T08:14:25.485Z,50.20
2023-05-08T08:16:52.415Z,50.60
2023-05-08T08:19:19.272Z,50.90
2023-05-08T08:21:46.477Z,51.80
2023-05-08T08:24:15.951Z,52.40
2023-05-08T08:26:43.126Z,53.00
2023-05-08T08:29:11.427Z,53.80
2023-05-08T08:31:38.525Z,54.00
2023-05-08T08:34:06.646Z,54.50
2023-05-08T08:36:33.719Z,54.80
2023-05-08T08:39:00.861Z,55.20
2023-05-08T08:41:29.315Z,55.20
2023-05-08T08:43:56.476Z,55.50
2023-05-08T08:46:25.844Z,55.60
2023-05-08T08:48:55.617Z,55.90
2023-05-08T08:51:32.036Z,56.10
2023-05-08T08:54:23.856Z,56.50
2023-05-08T08:56:52.316Z,56.50
2023-05-08T08:59:20.403Z,56.80
2023-05-08T09:01:55.075Z,57.00
2023-05-08T09:04:22.129Z,57.10
2023-05-08T09:06:50.985Z,57.40
2023-05-08T09:09:18.617Z,57.50
2023-05-08T09:11:47.102Z,57.60
2023-05-08T09:14:13.984Z,57.60
2023-05-08T09:16:41.147Z,57.80
2023-05-08T09:19:08.985Z,57.80
2023-05-08T09:21:36.019Z,57.70
2023-05-08T09:24:04.842Z,57.90
2023-05-08T09:26:37.135Z,57.90
2023-05-08T09:29:13.947Z,58.10
2023-05-08T09:31:42.808Z,58.10
2023-05-08T09:34:11.691Z,58.10
2023-05-08T09:36:42.119Z,58.10
2023-05-08T09:39:13.245Z,58.30
2023-05-08T09:41:41.183Z,58.30
2023-05-08T09:44:08.261Z,58.50
2023-05-08T09:46:35.360Z,58.60
2023-05-08T09:49:03.729Z,58.60
2023-05-08T09:51:31.779Z,58.90
2023-05-08T09:53:59.785Z,59.00
2023-05-08T09:56:54.048Z,59.00
2023-05-08T09:59:28.523Z,59.10
2023-05-08T10:01:57.475Z,59.10
2023-05-08T10:04:38.206Z,59.50
2023-05-08T10:07:05.329Z,59.50
2023-05-08T10:09:46.950Z,59.70
2023-05-08T10:12:16.992Z,60.50
2023-05-08T10:14:46.493Z,59.90
2023-05-08T10:17:21.558Z,60.00
2023-05-08T10:19:51.390Z,60.20
2023-05-08T10:22:20.124Z,60.40
2023-05-08T10:24:52.938Z,60.60
2023-05-08T10:27:39.269Z,61.40
2023-05-08T10:30:09.235Z,61.40
2023-05-08T10:32:43.386Z,61.90
2023-05-08T10:35:12.185Z,62.00
2023-05-08T10:37:42.389Z,62.10
2023-05-08T10:40:11.126Z,62.10
2023-05-08T10:42:38.986Z,62.30
2023-05-08T10:45:07.215Z,62.30
2023-05-08T10:48:03.674Z,62.30
2023-05-08T10:50:50.367Z,62.50
2023-05-08T10:53:32.045Z,62.50
2023-05-08T10:55:59.654Z,62.60
2023-05-08T10:58:33.964Z,62.60
2023-05-08T11:01:04.000Z,62.70
2023-05-08T11:03:33.424Z,62.80
2023-05-08T11:06:01.725Z,63.10
2023-05-08T11:08:30.642Z,63.00
2023-05-08T11:11:06.548Z,63.00
2023-05-08T11:13:37.429Z,63.10
2023-05-08T11:16:11.150Z,63.20
2023-05-08T11:18:49.196Z,63.20
2023-05-08T11:21:23.395Z,63.20
2023-05-08T11:24:00.169Z,63.30
2023-05-08T11:26:43.140Z,63.60
2023-05-08T11:29:17.797Z,63.50
2023-05-08T11:31:51.969Z,63.50
2023-05-08T11:34:43.669Z,63.60
2023-05-08T11:37:20.749Z,63.70
2023-05-08T11:39:48.335Z,64.10
2023-05-08T11:42:33.883Z,64.00
2023-05-08T11:45:13.116Z,64.00
2023-05-08T11:47:45.119Z,64.10
2023-05-08T11:50:14.614Z,64.40
2023-05-08T11:52:44.093Z,64.40
2023-05-08T11:55:13.054Z,64.50
2023-05-08T11:57:40.024Z,64.80
2023-05-08T12:00:08.821Z,64.80
2023-05-08T12:02:41.693Z,64.80
2023-05-08T12:05:10.316Z,65.10
2023-05-08T12:07:44.992Z,65.10
2023-05-08T12:10:12.751Z,65.30
2023-05-08T12:12:41.411Z,65.40
2023-05-08T12:15:10.530Z,65.40
2023-05-08T12:17:38.324Z,65.40
2023-05-08T12:20:14.360Z,65.50
2023-05-08T12:22:42.726Z,65.30
2023-05-08T12:25:13.094Z,65.70
2023-05-08T12:27:40.693Z,65.60
2023-05-08T12:30:09.604Z,65.50
2023-05-08T12:32:43.362Z,65.40
2023-05-08T12:35:11.918Z,65.50
2023-05-08T12:37:39.386Z,65.50
2023-05-08T12:40:07.744Z,66.00
2023-05-08T12:42:46.459Z,65.60
2023-05-08T12:45:20.444Z,65.60
2023-05-08T12:47:48.714Z,65.70
2023-05-08T12:50:16.990Z,65.70
2023-05-08T12:52:44.638Z,65.80
2023-05-08T12:55:27.525Z,66.00
2023-05-08T12:58:03.575Z,66.00
2023-05-08T13:00:38.617Z,66.10
2023-05-08T13:03:07.596Z,66.40
2023-05-08T13:05:37.248Z,67.30
2023-05-08T13:08:06.506Z,67.40
2023-05-08T13:10:55.893Z,68.20
2023-05-08T13:13:26.025Z,67.80
2023-05-08T13:15:55.490Z,68.00
2023-05-08T13:18:27.611Z,68.00
2023-05-08T13:20:56.212Z,68.20
2023-05-08T13:23:23.460Z,68.20
2023-05-08T13:25:52.088Z,68.40
2023-05-08T13:28:19.103Z,68.50
2023-05-08T13:30:46.130Z,68.70
2023-05-08T13:33:15.732Z,68.70
2023-05-08T13:35:43.629Z,68.90
2023-05-08T13:38:10.722Z,69.30
2023-05-08T13:40:37.879Z,68.90
2023-05-08T13:43:04.793Z,69.10
2023-05-08T13:45:35.824Z,69.00
2023-05-08T13:48:05.024Z,69.10
2023-05-08T13:50:33.428Z,69.10
2023-05-08T13:53:01.552Z,68.90
2023-05-08T13:55:28.538Z,68.80
2023-05-08T13:57:55.424Z,68.70
2023-05-08T14:00:22.312Z,68.60
2023-05-08T14:02:51.568Z,68.50
2023-05-08T14:05:21.086Z,68.50
2023-05-08T14:07:50.280Z,68.60
2023-05-08T14:10:17.301Z,68.70
2023-05-08T14:12:44.915Z,68.60
2023-05-08T14:15:13.188Z,68.50
2023-05-08T14:17:40.464Z,68.40
2023-05-08T14:20:08.713Z,68.20
2023-05-08T14:22:37.289Z,68.10
2023-05-08T14:25:05.650Z,67.90
2023-05-08T14:27:33.315Z,67.90
2023-05-08T14:30:00.406Z,67.90
2023-05-08T14:32:27.371Z,67.90
2023-05-08T14:34:54.302Z,67.70
2023-05-08T14:37:21.368Z,67.70
2023-05-08T14:39:48.260Z,67.60
2023-05-08T14:42:22.789Z,67.50
2023-05-08T14:44:57.924Z,67.40
2023-05-08T14:47:24.985Z,67.30
2023-05-08T14:49:55.955Z,67.10
2023-05-08T14:52:23.078Z,67.00
2023-05-08T14:54:53.469Z,66.80
2023-05-08T14:57:21.009Z,66.70
2023-05-08T14:59:54.957Z,66.60
2023-05-08T15:02:23.510Z,66.50
2023-05-08T15:04:52.064Z,66.40
2023-05-08T15:07:25.371Z,66.30
2023-05-08T15:09:53.214Z,66.60
2023-05-08T15:12:23.114Z,67.00
2023-05-08T15:14:53.078Z,67.00
2023-05-08T15:17:20.002Z,67.10
2023-05-08T15:19:46.987Z,67.00
2023-05-08T15:22:15.116Z,66.70
2023-05-08T15:24:42.186Z,66.40
2023-05-08T15:27:11.926Z,66.30
2023-05-08T15:29:43.859Z,65.20
2023-05-08T15:32:11.119Z,64.30
2023-05-08T15:34:41.066Z,65.10
2023-05-08T15:37:09.640Z,53.70
2023-05-08T15:39:43.525Z,52.60
2023-05-08T15:42:12.520Z,52.30
2023-05-08T15:47:11.843Z,51.20
2023-05-08T15:49:38.770Z,50.80
2023-05-08T15:52:05.652Z,50.60
2023-05-08T15:54:33.531Z,50.40
2023-05-08T15:57:00.503Z,50.10
2023-05-08T15:59:31.582Z,50.10
2023-05-08T16:02:01.040Z,49.70
2023-05-08T16:04:28.484Z,50.00
2023-05-08T16:06:58.631Z,49.90
2023-05-08T16:09:25.931Z,50.00
2023-05-08T16:11:53.983Z,49.20
2023-05-08T16:14:21.016Z,49.60
2023-05-08T16:16:48.604Z,49.60
2023-05-08T16:19:17.034Z,49.60
2023-05-08T16:21:47.822Z,49.30
2023-05-08T16:24:14.852Z,49.10
2023-05-08T16:26:41.773Z,49.10
2023-05-08T16:29:10.350Z,49.50
2023-05-08T16:31:41.289Z,49.40
2023-05-08T16:34:09.370Z,49.10
2023-05-08T16:36:40.760Z,48.90
2023-05-08T16:39:09.740Z,49.10
2023-05-08T16:41:40.742Z,49.10
2023-05-08T16:44:10.110Z,48.80
2023-05-08T16:46:39.182Z,48.90
2023-05-08T16:49:10.008Z,48.50
2023-05-08T16:51:41.988Z,48.50
2023-05-08T16:54:08.847Z,48.60
2023-05-08T16:56:39.151Z,48.30
2023-05-08T16:59:09.066Z,48.30
2023-05-08T17:01:38.029Z,48.10
2023-05-08T17:04:06.587Z,47.80
2023-05-08T17:06:34.907Z,47.70
2023-05-08T17:09:01.866Z,47.80
2023-05-08T17:11:28.715Z,47.60
2023-05-08T17:13:55.922Z,48.00
2023-05-08T17:16:23.953Z,47.20
2023-05-08T17:18:56.489Z,46.80
2023-05-08T17:21:23.339Z,47.00
2023-05-08T17:23:55.472Z,46.90
2023-05-08T17:26:37.890Z,46.70
2023-05-08T17:29:04.790Z,46.50
2023-05-08T17:31:31.888Z,46.60
2023-05-08T17:34:01.953Z,46.30
2023-05-08T17:36:30.034Z,46.30
2023-05-08T17:38:56.941Z,46.10
2023-05-08T17:41:23.833Z,46.00
2023-05-08T17:43:53.974Z,46.20
2023-05-08T17:46:21.090Z,46.30
2023-05-08T17:48:48.115Z,46.20
2023-05-08T17:51:15.032Z,46.00
2023-05-08T17:53:43.269Z,46.30
2023-05-08T17:56:20.507Z,46.00
2023-05-08T17:58:53.254Z,46.60
2023-05-08T18:01:22.131Z,50.70
2023-05-08T18:03:49.517Z,55.00
2023-05-08T18:06:18.682Z,57.70
2023-05-08T18:08:47.406Z,57.40
2023-05-08T18:11:18.492Z,57.80
2023-05-08T18:13:47.627Z,57.70
2023-05-08T18:16:15.821Z,58.00
2023-05-08T18:18:42.906Z,58.40
2023-05-08T18:21:12.201Z,58.60
2023-05-08T18:23:40.497Z,58.60
2023-05-08T18:26:09.867Z,59.70
2023-05-08T18:28:36.801Z,51.60
2023-05-08T18:31:03.772Z,49.70
2023-05-08T18:33:30.693Z,48.40
2023-05-08T18:35:57.832Z,47.50
2023-05-08T18:38:24.719Z,47.00
2023-05-08T18:43:32.460Z,46.30
2023-05-08T18:46:00.794Z,46.00
2023-05-08T18:48:36.926Z,45.60
2023-05-08T18:51:08.358Z,45.70
2023-05-08T18:53:45.934Z,45.30
2023-05-08T18:56:14.313Z,45.00
2023-05-08T18:58:41.298Z,44.80
2023-05-08T19:01:09.716Z,44.70
2023-05-08T19:03:36.916Z,44.40
2023-05-08T19:06:04.321Z,44.50
2023-05-08T19:08:31.198Z,44.10
2023-05-08T19:11:00.650Z,44.20
2023-05-08T19:13:29.695Z,44.20
2023-05-08T19:15:57.997Z,43.90
2023-05-08T19:18:26.682Z,43.90
2023-05-08T19:20:53.944Z,43.80
2023-05-08T19:23:22.291Z,43.70
2023-05-08T19:25:49.137Z,43.50
2023-05-08T19:28:16.379Z,43.30
2023-05-08T19:30:43.634Z,43.20
2023-05-08T19:33:10.518Z,43.00
2023-05-08T19:35:38.165Z,43.10
2023-05-08T19:38:06.124Z,42.90
2023-05-08T19:40:44.544Z,44.60
2023-05-08T19:43:19.770Z,47.40
2023-05-08T19:45:47.932Z,53.20
2023-05-08T19:48:18.512Z,54.40
2023-05-08T19:50:47.097Z,55.40
2023-05-08T19:53:14.239Z,55.90
2023-05-08T19:55:41.157Z,56.30
2023-05-08T19:58:10.145Z,56.40
2023-05-08T20:00:39.634Z,56.60
2023-05-08T20:03:09.605Z,56.90
2023-05-08T20:05:37.946Z,57.50
2023-05-08T20:08:04.990Z,57.70
2023-05-08T20:10:31.967Z,58.30
2023-05-08T20:12:58.984Z,59.00
2023-05-08T20:15:26.184Z,59.00
2023-05-08T20:17:54.473Z,59.50
2023-05-08T20:20:22.033Z,60.30
2023-05-08T20:22:49.466Z,60.20
2023-05-08T20:25:17.569Z,60.50
2023-05-08T20:27:44.555Z,61.00
2023-05-08T20:30:13.827Z,62.20
2023-05-08T20:32:41.203Z,61.60
2023-05-08T20:35:10.186Z,61.70
2023-05-08T20:37:50.429Z,62.40
2023-05-08T20:40:20.121Z,62.70
2023-05-08T20:42:51.786Z,63.10
2023-05-08T20:45:18.757Z,62.80
2023-05-08T20:47:47.874Z,63.10
2023-05-08T20:50:16.298Z,63.50
2023-05-08T20:52:43.425Z,63.50
2023-05-08T20:55:11.151Z,63.80
2023-05-08T20:57:39.273Z,64.90
2023-05-08T21:00:07.787Z,64.20
2023-05-08T21:02:34.927Z,64.50
2023-05-08T21:05:02.057Z,65.00
2023-05-08T21:07:29.041Z,66.10
2023-05-08T21:09:57.228Z,66.00
2023-05-08T21:12:24.192Z,66.60
2023-05-08T21:14:53.472Z,65.30
2023-05-08T21:17:20.354Z,65.30
2023-05-08T21:19:52.482Z,67.80
2023-05-08T21:22:22.843Z,68.10
2023-05-08T21:27:34.351Z,68.80
2023-05-08T21:30:01.714Z,68.80
2023-05-08T21:32:28.628Z,69.00
2023-05-08T21:34:56.333Z,69.20
2023-05-08T21:37:23.723Z,69.10
2023-05-08T21:39:50.729Z,69.50
2023-05-08T21:42:17.576Z,70.10
2023-05-08T21:44:51.552Z,70.00
2023-05-08T21:47:19.454Z,69.50
2023-05-08T21:50:12.607Z,71.00
2023-05-08T21:58:49.775Z,70.30
2023-05-08T22:08:21.059Z,70.40
2023-05-08T22:10:49.182Z,70.80
2023-05-08T22:13:16.553Z,70.70
2023-05-08T22:15:43.593Z,70.50
2023-05-08T22:18:10.551Z,70.70
2023-05-08T22:20:37.382Z,71.00
2023-05-08T22:23:04.309Z,71.10
2023-05-08T22:25:31.206Z,71.00
2023-05-08T22:27:58.311Z,70.80
2023-05-08T22:30:25.179Z,71.00
2023-05-08T22:32:57.933Z,71.20
2023-05-08T22:35:27.331Z,71.40
2023-05-08T22:37:54.694Z,71.50
2023-05-08T22:40:22.331Z,71.30
2023-05-08T22:42:51.652Z,71.10
2023-05-08T22:45:19.193Z,71.70
2023-05-08T22:47:46.228Z,71.10
2023-05-08T22:50:15.505Z,71.40
2023-05-08T22:52:42.518Z,71.50
2023-05-08T22:55:09.628Z,71.30
2023-05-08T22:57:36.541Z,71.90
2023-05-08T23:00:04.211Z,71.00
2023-05-08T23:02:35.125Z,71.90
2023-05-08T23:05:02.534Z,71.00
2023-05-08T23:07:29.534Z,70.80
2023-05-08T23:09:56.433Z,70.80
2023-05-08T23:12:23.437Z,71.10
2023-05-08T23:14:50.312Z,71.50
2023-05-08T23:17:17.323Z,71.80
2023-05-08T23:19:45.416Z,71.50
2023-05-08T23:22:12.456Z,72.10
2023-05-08T23:24:39.364Z,71.80
2023-05-08T23:27:06.288Z,72.20
2023-05-08T23:29:33.140Z,72.00
2023-05-08T23:32:00.615Z,72.40
2023-05-08T23:34:27.592Z,72.00
2023-05-08T23:36:54.557Z,72.30
2023-05-08T23:39:21.456Z,71.50
2023-05-08T23:41:48.381Z,71.70
2023-05-08T23:44:15.864Z,71.60
2023-05-08T23:46:42.826Z,71.90
2023-05-08T23:49:09.765Z,71.70
2023-05-08T23:51:36.856Z,72.10
2023-05-08T23:54:04.612Z,72.20
2023-05-08T23:56:31.472Z,72.40
2023-05-08T23:58:58.405Z,72.30
